createdAt,value
2019-04-04T00:01:22.652Z,4.57
2019-04-04T00:03:53.070Z,4.23
2019-04-04T00:06:26.689Z,6.40
2019-04-04T00:08:54.768Z,4.30
2019-04-04T00:11:24.161Z,5.00
2019-04-04T00:13:54.771Z,6.30
2019-04-04T00:16:24.146Z,5.30
2019-04-04T00:18:54.467Z,6.50
2019-04-04T00:21:24.811Z,5.27
2019-04-04T00:23:53.340Z,3.73
2019-04-04T00:26:22.689Z,3.50
2019-04-04T00:28:52.091Z,3.90
2019-04-04T00:31:20.960Z,3.97
2019-04-04T00:33:51.340Z,4.90
2019-04-04T00:36:20.660Z,4.23
2019-04-04T00:38:51.325Z,5.80
2019-04-04T00:41:20.637Z,3.90
2019-04-04T00:43:51.791Z,4.83
2019-04-04T00:46:24.082Z,4.37
2019-04-04T00:48:54.109Z,6.47
2019-04-04T00:51:26.534Z,5.67
2019-04-04T00:53:54.993Z,3.97
2019-04-04T00:56:25.309Z,4.50
2019-04-04T00:58:55.777Z,4.33
2019-04-04T01:01:27.190Z,8.33
2019-04-04T01:04:00.258Z,4.37
2019-04-04T01:06:30.123Z,4.33
2019-04-04T01:09:00.524Z,3.40
2019-04-04T01:11:32.430Z,3.63
2019-04-04T01:14:02.763Z,3.13
2019-04-04T01:16:34.087Z,3.80
2019-04-04T01:19:02.947Z,4.43
2019-04-04T01:21:33.011Z,4.03
2019-04-04T01:24:01.502Z,3.50
2019-04-04T01:26:34.856Z,4.10
2019-04-04T01:29:05.869Z,4.83
2019-04-04T01:31:36.365Z,5.37
2019-04-04T01:34:05.745Z,3.97
2019-04-04T01:36:35.129Z,4.77
2019-04-04T01:39:06.766Z,4.60
2019-04-04T01:41:39.451Z,5.17
2019-04-04T01:44:11.824Z,4.70
2019-04-04T01:46:42.202Z,3.67
2019-04-04T01:49:14.430Z,3.87
2019-04-04T01:51:45.582Z,4.07
2019-04-04T01:54:16.999Z,5.33
2019-04-04T01:56:47.399Z,4.80
2019-04-04T01:59:19.306Z,3.57
2019-04-04T02:01:48.691Z,4.10
2019-04-04T02:04:19.060Z,4.07
2019-04-04T02:06:49.465Z,5.33
2019-04-04T02:09:19.864Z,4.60
2019-04-04T02:11:50.246Z,4.80
2019-04-04T02:14:19.720Z,4.40
2019-04-04T02:16:51.610Z,6.23
2019-04-04T02:19:22.933Z,4.30
2019-04-04T02:21:53.362Z,5.20
2019-04-04T02:24:24.218Z,5.20
2019-04-04T02:26:53.546Z,5.07
2019-04-04T02:29:23.948Z,5.20
2019-04-04T02:31:57.681Z,4.83
2019-04-04T02:34:28.099Z,5.33
2019-04-04T02:36:58.627Z,5.30
2019-04-04T02:39:29.003Z,8.57
2019-04-04T02:41:59.348Z,6.67
2019-04-04T02:44:32.269Z,8.37
2019-04-04T02:47:01.804Z,7.20
2019-04-04T02:49:32.215Z,7.53
2019-04-04T02:52:01.571Z,7.87
2019-04-04T02:54:31.970Z,7.87
2019-04-04T02:57:02.859Z,8.30
2019-04-04T02:59:33.421Z,8.17
2019-04-04T03:02:05.769Z,9.57
2019-04-04T03:04:34.162Z,9.20
2019-04-04T03:07:03.709Z,7.77
2019-04-04T03:09:33.193Z,11.93
2019-04-04T03:12:03.575Z,8.07
2019-04-04T03:14:37.346Z,8.67
2019-04-04T03:17:06.777Z,7.77
2019-04-04T03:19:43.057Z,8.80
2019-04-04T03:22:10.663Z,9.20
2019-04-04T03:24:44.743Z,9.50
2019-04-04T03:27:13.081Z,10.57
2019-04-04T03:29:42.674Z,9.90
2019-04-04T03:32:14.400Z,10.70
2019-04-04T03:34:49.765Z,11.20
2019-04-04T03:37:16.560Z,11.13
2019-04-04T03:39:47.005Z,14.70
2019-04-04T03:42:17.419Z,11.87
2019-04-04T03:44:52.887Z,11.23
2019-04-04T03:47:19.950Z,11.60
2019-04-04T03:49:50.288Z,12.40
2019-04-04T03:52:19.662Z,11.20
2019-04-04T03:54:49.070Z,12.30
2019-04-04T03:57:19.654Z,15.00
2019-04-04T03:59:50.082Z,12.33
2019-04-04T04:02:19.784Z,12.23
2019-04-04T04:04:49.243Z,12.23
2019-04-04T04:07:18.766Z,13.37
2019-04-04T04:09:48.164Z,11.87
2019-04-04T04:12:18.520Z,12.97
2019-04-04T04:14:48.028Z,15.00
2019-04-04T04:17:18.419Z,13.07
2019-04-04T04:19:47.795Z,14.73
2019-04-04T04:22:19.275Z,15.37
2019-04-04T04:24:48.884Z,15.03
2019-04-04T04:27:21.266Z,15.13
2019-04-04T04:29:51.712Z,18.23
2019-04-04T04:32:22.792Z,15.87
2019-04-04T04:34:52.309Z,19.83
2019-04-04T04:37:21.733Z,16.33
2019-04-04T04:39:52.088Z,16.63
2019-04-04T04:42:26.322Z,15.77
2019-04-04T04:44:53.795Z,15.60
2019-04-04T04:47:25.653Z,16.07
2019-04-04T04:49:55.601Z,15.73
2019-04-04T04:52:26.123Z,17.27
2019-04-04T04:54:55.688Z,15.33
2019-04-04T04:57:29.736Z,17.07
2019-04-04T04:59:58.103Z,15.03
2019-04-04T05:02:28.510Z,23.30
2019-04-04T05:05:00.043Z,15.43
2019-04-04T05:07:30.588Z,14.60
2019-04-04T05:09:59.875Z,16.43
2019-04-04T05:12:29.238Z,14.73
2019-04-04T05:15:01.421Z,14.10
2019-04-04T05:17:31.471Z,18.27
2019-04-04T05:20:01.806Z,16.47
2019-04-04T05:22:32.309Z,14.37
2019-04-04T05:25:08.442Z,20.73
2019-04-04T05:27:35.097Z,16.47
2019-04-04T05:30:08.429Z,14.73
2019-04-04T05:32:39.219Z,15.27
2019-04-04T05:35:09.046Z,13.20
2019-04-04T05:37:41.596Z,12.83
2019-04-04T05:40:15.344Z,15.63
2019-04-04T05:42:47.346Z,12.90
2019-04-04T05:45:16.927Z,13.90
2019-04-04T05:47:47.397Z,17.27
2019-04-04T05:50:16.923Z,12.53
2019-04-04T05:52:47.281Z,14.30
2019-04-04T05:55:16.645Z,14.60
2019-04-04T05:57:47.034Z,18.40
2019-04-04T06:00:18.089Z,16.67
2019-04-04T06:02:48.499Z,14.73
2019-04-04T06:05:20.757Z,15.33
2019-04-04T06:07:53.150Z,15.20
2019-04-04T06:10:23.553Z,14.77
2019-04-04T06:12:57.308Z,18.37
2019-04-04T06:15:27.665Z,17.67
2019-04-04T06:17:58.107Z,17.10
2019-04-04T06:20:28.432Z,12.93
2019-04-04T06:22:58.821Z,12.60
2019-04-04T06:25:28.309Z,17.20
2019-04-04T06:27:59.215Z,13.33
2019-04-04T06:30:28.618Z,15.63
2019-04-04T06:32:59.088Z,18.27
2019-04-04T06:35:29.489Z,13.20
2019-04-04T06:38:00.115Z,13.40
2019-04-04T06:40:30.238Z,14.07
2019-04-04T06:43:03.539Z,23.20
2019-04-04T06:45:31.539Z,14.27
2019-04-04T06:48:01.009Z,15.03
2019-04-04T06:50:30.483Z,17.00
2019-04-04T06:53:00.865Z,18.77
2019-04-04T06:55:34.231Z,12.40
2019-04-04T06:58:08.336Z,18.20
2019-04-04T07:00:36.463Z,14.53
2019-04-04T07:03:09.904Z,15.53
2019-04-04T07:05:39.387Z,13.60
2019-04-04T07:08:15.188Z,13.93
2019-04-04T07:10:57.167Z,12.53
2019-04-04T07:13:22.133Z,11.43
2019-04-04T07:16:05.390Z,12.27
2019-04-04T07:18:22.161Z,10.87
2019-04-04T07:20:50.887Z,12.35
2019-04-04T07:23:20.363Z,8.98
2019-04-04T07:25:49.762Z,8.58
2019-04-04T07:28:20.127Z,7.95
2019-04-04T07:30:49.585Z,9.90
2019-04-04T07:33:21.460Z,8.37
2019-04-04T07:35:52.114Z,10.73
2019-04-04T07:38:22.474Z,8.27
2019-04-04T07:40:51.880Z,13.80
2019-04-04T07:43:22.159Z,7.50
2019-04-04T07:45:55.186Z,11.00
2019-04-04T07:48:24.726Z,14.90
2019-04-04T07:50:58.242Z,13.70
2019-04-04T07:53:28.147Z,8.63
2019-04-04T07:55:58.760Z,12.33
2019-04-04T07:58:30.632Z,7.63
2019-04-04T08:01:01.007Z,11.53
2019-04-04T08:03:30.522Z,12.03
2019-04-04T08:06:00.904Z,9.57
2019-04-04T08:08:30.392Z,13.47
2019-04-04T08:10:59.792Z,12.13
2019-04-04T08:13:30.135Z,12.30
2019-04-04T08:16:00.543Z,14.23
2019-04-04T08:18:30.953Z,11.83
2019-04-04T08:21:00.348Z,14.10
2019-04-04T08:23:30.453Z,17.03
2019-04-04T08:26:00.805Z,14.07
2019-04-04T08:28:31.322Z,11.73
2019-04-04T08:31:00.727Z,13.63
2019-04-04T08:33:31.185Z,8.97
2019-04-04T08:36:06.127Z,11.17
2019-04-04T08:38:33.263Z,11.10
2019-04-04T08:41:02.671Z,11.27
2019-04-04T08:43:33.017Z,7.83
2019-04-04T08:46:03.396Z,8.83
2019-04-04T08:48:32.829Z,11.30
2019-04-04T08:51:03.315Z,13.63
2019-04-04T08:53:39.871Z,12.90
2019-04-04T08:56:05.265Z,10.17
2019-04-04T08:58:34.669Z,12.73
2019-04-04T09:01:05.131Z,11.63
2019-04-04T09:03:37.110Z,9.43
2019-04-04T09:06:10.851Z,11.17
2019-04-04T09:08:41.167Z,22.60
2019-04-04T09:11:11.551Z,9.20
2019-04-04T09:13:42.998Z,7.10
2019-04-04T09:16:14.985Z,11.90
2019-04-04T09:18:45.460Z,12.27
2019-04-04T09:21:16.531Z,13.93
2019-04-04T09:23:46.953Z,14.37
2019-04-04T09:26:16.700Z,24.10
2019-04-04T09:28:46.070Z,13.57
2019-04-04T09:31:15.463Z,16.73
2019-04-04T09:33:45.950Z,11.10
2019-04-04T09:36:16.892Z,7.73
2019-04-04T09:38:47.397Z,12.53
2019-04-04T09:41:19.138Z,7.77
2019-04-04T09:43:49.537Z,7.93
2019-04-04T09:46:18.954Z,13.43
2019-04-04T09:48:48.373Z,5.13
2019-04-04T09:51:20.758Z,16.13
2019-04-04T09:53:53.282Z,8.23
2019-04-04T09:56:21.295Z,5.37
2019-04-04T09:58:54.795Z,12.67
2019-04-04T10:01:22.840Z,9.57
2019-04-04T10:03:52.261Z,13.37
2019-04-04T10:06:22.611Z,6.50
2019-04-04T10:08:52.140Z,6.77
2019-04-04T10:11:23.177Z,9.43
2019-04-04T10:13:52.652Z,4.57
2019-04-04T10:16:22.960Z,8.60
2019-04-04T10:18:53.871Z,7.67
2019-04-04T10:21:23.219Z,13.30
2019-04-04T10:23:54.074Z,9.70
2019-04-04T10:26:23.447Z,5.10
2019-04-04T10:28:52.292Z,6.37
2019-04-04T10:31:24.842Z,7.03
2019-04-04T10:33:55.261Z,10.13
2019-04-04T10:36:25.666Z,4.20
2019-04-04T10:38:55.162Z,5.83
2019-04-04T10:41:24.646Z,6.27
2019-04-04T10:43:56.973Z,4.37
2019-04-04T10:46:26.395Z,3.87
2019-04-04T10:48:56.741Z,4.90
2019-04-04T10:51:28.788Z,4.93
2019-04-04T10:53:59.211Z,4.80
2019-04-04T10:56:29.636Z,3.97
2019-04-04T10:59:00.045Z,4.93
2019-04-04T11:01:30.438Z,5.80
2019-04-04T11:03:59.925Z,5.40
2019-04-04T11:06:30.314Z,7.40
2019-04-04T11:09:02.699Z,5.40
2019-04-04T11:11:32.326Z,4.77
2019-04-04T11:14:01.678Z,4.20
2019-04-04T11:16:31.022Z,6.70
2019-04-04T11:19:01.398Z,4.03
2019-04-04T11:21:32.012Z,6.13
2019-04-04T11:24:00.905Z,5.20
2019-04-04T11:26:31.471Z,3.63
2019-04-04T11:29:01.994Z,6.80
2019-04-04T11:31:31.389Z,5.60
2019-04-04T11:34:01.743Z,10.37
2019-04-04T11:36:34.133Z,5.77
2019-04-04T11:39:06.668Z,5.97
2019-04-04T11:41:36.100Z,6.80
2019-04-04T11:44:06.602Z,5.43
2019-04-04T11:46:38.189Z,8.33
2019-04-04T11:49:08.573Z,11.00
2019-04-04T11:51:37.939Z,8.93
2019-04-04T11:54:07.343Z,5.83
2019-04-04T11:56:36.657Z,8.20
2019-04-04T11:59:08.168Z,4.93
2019-04-04T12:01:38.967Z,3.73
2019-04-04T12:04:08.450Z,5.07
2019-04-04T12:06:36.930Z,6.27
2019-04-04T12:09:08.303Z,4.27
2019-04-04T12:11:37.630Z,4.70
2019-04-04T12:14:07.091Z,6.23
2019-04-04T12:16:38.159Z,5.73
2019-04-04T12:19:07.517Z,6.57
2019-04-04T12:21:36.848Z,8.40
2019-04-04T12:24:07.310Z,10.27
2019-04-04T12:26:37.680Z,8.43
2019-04-04T12:29:08.022Z,9.63
2019-04-04T12:31:38.667Z,9.63
2019-04-04T12:34:08.077Z,10.00
2019-04-04T12:36:40.076Z,5.53
2019-04-04T12:39:10.615Z,9.97
2019-04-04T12:41:40.019Z,12.30
2019-04-04T12:44:09.501Z,13.00
2019-04-04T12:46:37.983Z,11.33
2019-04-04T12:49:07.480Z,11.47
2019-04-04T12:51:36.314Z,13.07
2019-04-04T12:54:05.859Z,9.53
2019-04-04T12:56:36.209Z,11.53
2019-04-04T12:59:05.726Z,7.07
2019-04-04T13:01:36.120Z,12.37
2019-04-04T13:04:06.446Z,11.40
2019-04-04T13:06:36.753Z,14.90
2019-04-04T13:09:10.197Z,12.13
2019-04-04T13:11:40.568Z,9.80
2019-04-04T13:14:10.076Z,10.63
2019-04-04T13:16:40.468Z,14.53
2019-04-04T13:19:09.269Z,5.53
2019-04-04T13:21:39.678Z,5.70
2019-04-04T13:24:09.187Z,8.47
2019-04-04T13:26:39.600Z,12.77
2019-04-04T13:29:11.438Z,11.40
2019-04-04T13:31:42.239Z,7.27
2019-04-04T13:34:11.602Z,11.70
2019-04-04T13:36:42.577Z,9.90
2019-04-04T13:39:12.141Z,6.73
2019-04-04T13:41:41.676Z,12.53
2019-04-04T13:44:11.072Z,7.20
2019-04-04T13:46:39.944Z,6.93
2019-04-04T13:49:11.663Z,8.50
2019-04-04T13:51:42.140Z,10.83
2019-04-04T13:54:12.464Z,5.33
2019-04-04T13:56:44.429Z,12.30
2019-04-04T13:59:16.372Z,10.17
2019-04-04T14:01:47.532Z,8.73
2019-04-04T14:04:20.287Z,7.90
2019-04-04T14:06:49.789Z,8.67
2019-04-04T14:09:19.170Z,6.97
2019-04-04T14:11:49.561Z,9.80
2019-04-04T14:14:19.922Z,5.07
2019-04-04T14:16:52.944Z,8.73
2019-04-04T14:19:23.957Z,8.63
2019-04-04T14:21:54.529Z,6.70
2019-04-04T14:24:24.946Z,9.30
2019-04-04T14:26:54.353Z,7.40
2019-04-04T14:29:27.731Z,8.07
2019-04-04T14:31:57.424Z,7.50
2019-04-04T14:34:26.873Z,11.00
2019-04-04T14:36:56.269Z,13.13
2019-04-04T14:39:26.649Z,8.33
2019-04-04T14:41:57.041Z,15.27
2019-04-04T14:44:28.022Z,9.80
2019-04-04T14:46:58.645Z,8.00
2019-04-04T14:49:27.111Z,8.30
2019-04-04T14:51:56.588Z,10.60
2019-04-04T14:54:25.095Z,8.73
2019-04-04T14:56:53.576Z,15.57
2019-04-04T14:59:24.045Z,15.03
2019-04-04T15:01:54.559Z,11.93
2019-04-04T15:04:25.580Z,18.77
2019-04-04T15:06:55.980Z,14.03
2019-04-04T15:09:26.549Z,11.37
2019-04-04T15:11:55.978Z,10.47
2019-04-04T15:14:27.959Z,14.23
2019-04-04T15:16:58.387Z,10.90
2019-04-04T15:19:30.163Z,10.37
2019-04-04T15:21:59.678Z,9.80
2019-04-04T15:24:30.175Z,11.70
2019-04-04T15:27:02.567Z,10.70
2019-04-04T15:29:32.089Z,12.90
2019-04-04T15:32:02.614Z,16.97
2019-04-04T15:34:35.037Z,11.77
2019-04-04T15:37:04.416Z,20.43
2019-04-04T15:39:32.926Z,18.27
2019-04-04T15:42:03.643Z,14.10
2019-04-04T15:44:33.051Z,21.23
2019-04-04T15:47:02.480Z,29.93
2019-04-04T15:49:32.847Z,24.20
2019-04-04T15:52:02.357Z,19.30
2019-04-04T15:54:32.858Z,21.30
2019-04-04T15:57:02.226Z,20.63
2019-04-04T15:59:34.601Z,21.83
2019-04-04T16:02:07.094Z,24.80
2019-04-04T16:04:37.717Z,27.73
2019-04-04T16:07:08.464Z,20.77
2019-04-04T16:09:37.949Z,22.37
2019-04-04T16:12:08.221Z,21.77
2019-04-04T16:14:37.622Z,18.53
2019-04-04T16:17:08.076Z,21.13
2019-04-04T16:19:40.461Z,20.53
2019-04-04T16:22:09.857Z,23.37
2019-04-04T16:24:40.225Z,19.07
2019-04-04T16:27:11.085Z,23.80
2019-04-04T16:29:44.278Z,19.47
2019-04-04T16:32:13.996Z,21.57
2019-04-04T16:34:43.426Z,19.40
2019-04-04T16:37:12.825Z,22.50
2019-04-04T16:39:43.318Z,19.77
2019-04-04T16:42:13.691Z,19.77
2019-04-04T16:44:44.094Z,23.73
2019-04-04T16:47:13.605Z,21.53
2019-04-04T16:49:44.173Z,21.50
2019-04-04T16:52:13.580Z,19.23
2019-04-04T16:54:44.018Z,23.20
2019-04-04T16:57:14.576Z,19.47
2019-04-04T16:59:44.080Z,16.17
2019-04-04T17:02:13.537Z,17.77
2019-04-04T17:04:44.002Z,18.43
2019-04-04T17:07:13.359Z,14.60
2019-04-04T17:09:43.766Z,19.20
2019-04-04T17:12:16.152Z,17.17
2019-04-04T17:14:46.484Z,15.70
2019-04-04T17:17:16.968Z,18.93
2019-04-04T17:19:49.355Z,18.57
2019-04-04T17:22:21.234Z,16.13
2019-04-04T17:24:50.645Z,17.77
2019-04-04T17:27:20.161Z,15.60
2019-04-04T17:29:48.753Z,19.60
2019-04-04T17:32:17.259Z,18.30
2019-04-04T17:34:47.751Z,16.17
2019-04-04T17:37:18.138Z,16.00
2019-04-04T17:39:47.937Z,15.83
2019-04-04T17:42:28.646Z,15.60
2019-04-04T17:44:49.521Z,18.60
2019-04-04T17:47:22.877Z,13.87
2019-04-04T17:49:53.652Z,13.40
2019-04-04T17:52:24.370Z,14.20
2019-04-04T17:54:53.726Z,16.13
2019-04-04T17:57:24.813Z,16.40
2019-04-04T17:59:54.285Z,13.17
2019-04-04T18:02:23.156Z,15.27
2019-04-04T18:04:54.880Z,14.93
2019-04-04T18:07:24.252Z,15.30
2019-04-04T18:09:53.657Z,13.63
2019-04-04T18:12:25.388Z,12.90
2019-04-04T18:14:56.711Z,15.77
2019-04-04T18:17:29.310Z,13.07
2019-04-04T18:19:58.146Z,12.73
2019-04-04T18:22:26.986Z,12.03
2019-04-04T18:24:57.498Z,12.40
2019-04-04T18:27:31.141Z,14.70
2019-04-04T18:30:00.562Z,14.23
2019-04-04T18:32:30.929Z,11.80
2019-04-04T18:35:00.293Z,13.93
2019-04-04T18:37:30.093Z,13.53
2019-04-04T18:40:02.071Z,29.27
2019-04-04T18:42:31.531Z,14.67
2019-04-04T18:45:01.895Z,15.17
2019-04-04T18:47:31.267Z,14.43
2019-04-04T18:50:00.661Z,17.03
2019-04-04T18:52:33.110Z,15.13
2019-04-04T18:55:03.511Z,15.00
2019-04-04T18:57:34.038Z,15.53
2019-04-04T19:00:03.531Z,15.20
2019-04-04T19:02:32.952Z,15.70
2019-04-04T19:05:02.355Z,17.03
2019-04-04T19:07:39.173Z,17.80
2019-04-04T19:10:04.083Z,18.80
2019-04-04T19:12:34.473Z,18.13
2019-04-04T19:15:07.589Z,17.57
2019-04-04T19:17:36.339Z,17.10
2019-04-04T19:20:12.854Z,17.97
2019-04-04T19:22:42.312Z,16.77
2019-04-04T19:25:13.920Z,19.93
2019-04-04T19:27:44.369Z,22.67
2019-04-04T19:30:13.458Z,24.47
2019-04-04T19:32:47.017Z,18.03
2019-04-04T19:35:18.222Z,18.97
2019-04-04T19:37:59.475Z,19.80
2019-04-04T19:40:21.730Z,18.60
2019-04-04T19:42:51.157Z,19.60
2019-04-04T19:45:21.839Z,21.33
2019-04-04T19:47:51.274Z,19.20
2019-04-04T19:50:20.833Z,18.47
2019-04-04T19:52:50.270Z,16.70
2019-04-04T19:55:19.656Z,15.53
2019-04-04T19:57:49.012Z,16.67
2019-04-04T20:00:20.020Z,17.10
2019-04-04T20:02:49.436Z,20.13
2019-04-04T20:05:21.104Z,14.83
2019-04-04T20:07:51.539Z,15.47
2019-04-04T20:10:21.930Z,16.70
2019-04-04T20:12:51.514Z,14.67
2019-04-04T20:15:21.844Z,15.23
2019-04-04T20:17:54.206Z,13.27
2019-04-04T20:20:24.720Z,15.43
2019-04-04T20:22:55.131Z,16.30
2019-04-04T20:25:25.537Z,12.57
2019-04-04T20:27:55.940Z,16.43
2019-04-04T20:30:39.553Z,12.27
2019-04-04T20:33:12.150Z,13.93
2019-04-04T20:35:42.610Z,12.10
2019-04-04T20:38:11.382Z,12.50
2019-04-04T20:40:40.747Z,11.73
2019-04-04T20:43:10.171Z,12.23
2019-04-04T20:45:40.529Z,12.27
2019-04-04T20:48:11.505Z,13.73
2019-04-04T20:50:40.976Z,11.47
2019-04-04T20:53:12.731Z,11.30
2019-04-04T20:55:42.218Z,14.00
2019-04-04T20:58:11.604Z,13.93
2019-04-04T21:00:42.192Z,12.43
2019-04-04T21:03:11.543Z,11.63
2019-04-04T21:05:43.509Z,11.90
2019-04-04T21:08:13.840Z,12.20
2019-04-04T21:10:44.316Z,12.07
2019-04-04T21:13:14.720Z,10.70
2019-04-04T21:15:45.230Z,12.87
2019-04-04T21:18:14.652Z,11.47
2019-04-04T21:20:45.002Z,12.60
2019-04-04T21:23:14.408Z,13.23
2019-04-04T21:25:46.331Z,11.50
2019-04-04T21:28:16.744Z,11.07
2019-04-04T21:30:47.457Z,13.30
2019-04-04T21:33:17.877Z,13.13
2019-04-04T21:35:47.267Z,12.63
2019-04-04T21:38:18.062Z,12.90
2019-04-04T21:40:48.458Z,11.50
2019-04-04T21:43:17.822Z,12.03
2019-04-04T21:45:47.220Z,13.60
2019-04-04T21:48:17.788Z,13.00
2019-04-04T21:50:47.189Z,10.83
2019-04-04T21:53:17.648Z,11.17
2019-04-04T21:55:47.988Z,11.93
2019-04-04T21:58:18.550Z,13.83
2019-04-04T22:00:48.264Z,12.60
2019-04-04T22:03:18.610Z,12.93
2019-04-04T22:05:49.167Z,11.77
2019-04-04T22:08:19.574Z,15.23
2019-04-04T22:10:49.056Z,13.60
2019-04-04T22:13:19.375Z,13.53
2019-04-04T22:15:48.801Z,13.43
2019-04-04T22:21:48.124Z,13.00
2019-04-04T22:24:17.581Z,12.73
2019-04-04T22:26:47.975Z,14.73
2019-04-04T22:29:17.374Z,14.60
2019-04-04T22:31:46.753Z,13.33
2019-04-04T22:34:18.775Z,15.53
2019-04-04T22:36:49.141Z,15.93
2019-04-04T22:39:19.572Z,13.50
2019-04-04T22:41:48.957Z,14.53
2019-04-04T22:44:19.353Z,14.77
2019-04-04T22:46:52.683Z,16.80
2019-04-04T22:49:23.097Z,13.47
2019-04-04T22:51:53.488Z,16.40
2019-04-04T22:54:22.867Z,14.33
2019-04-04T22:56:54.448Z,16.87
2019-04-04T22:59:24.983Z,14.83
2019-04-04T23:01:55.962Z,14.57
2019-04-04T23:04:25.436Z,14.07
2019-04-04T23:06:54.895Z,13.57
2019-04-04T23:09:24.300Z,13.70
2019-04-04T23:11:54.648Z,14.67
2019-04-04T23:14:25.037Z,15.50
2019-04-04T23:16:55.583Z,14.83
2019-04-04T23:19:25.969Z,16.63
2019-04-04T23:21:56.342Z,13.07
2019-04-04T23:24:26.708Z,13.47
2019-04-04T23:26:59.171Z,15.87
2019-04-04T23:29:29.532Z,16.40
2019-04-04T23:31:58.949Z,16.13
2019-04-04T23:34:30.639Z,14.37
2019-04-04T23:37:00.076Z,15.77
2019-04-04T23:39:34.021Z,14.17
2019-04-04T23:42:04.530Z,15.43
2019-04-04T23:44:34.947Z,16.00
2019-04-04T23:47:05.481Z,14.80
2019-04-04T23:49:35.759Z,16.57
2019-04-04T23:52:06.254Z,16.20
2019-04-04T23:54:37.909Z,18.23
2019-04-04T23:57:08.318Z,14.40
2019-04-04T23:59:38.914Z,15.23
